createdAt,value
2023-04-21T00:00:16.085Z,10.40
2023-04-21T00:02:43.899Z,10.50
2023-04-21T00:05:12.790Z,10.50
2023-04-21T00:07:41.904Z,10.50
2023-04-21T00:10:11.353Z,10.50
2023-04-21T00:12:39.301Z,10.50
2023-04-21T00:15:08.241Z,10.40
2023-04-21T00:17:36.014Z,10.40
2023-04-21T00:20:05.625Z,10.30
2023-04-21T00:22:33.429Z,10.30
2023-04-21T00:25:01.012Z,10.30
2023-04-21T00:27:29.143Z,10.20
2023-04-21T00:29:57.023Z,10.20
2023-04-21T00:32:24.624Z,10.20
2023-04-21T00:34:52.446Z,10.20
2023-04-21T00:37:20.071Z,10.10
2023-04-21T00:39:47.684Z,10.00
2023-04-21T00:42:18.256Z,10.00
2023-04-21T00:44:45.960Z,10.00
2023-04-21T00:47:14.221Z,10.00
2023-04-21T00:49:42.924Z,10.10
2023-04-21T00:52:10.715Z,10.00
2023-04-21T00:54:38.640Z,9.90
2023-04-21T00:57:08.283Z,9.90
2023-04-21T00:59:36.709Z,9.80
2023-04-21T01:02:04.778Z,9.80
2023-04-21T01:04:37.219Z,9.70
2023-04-21T01:07:06.278Z,9.70
2023-04-21T01:09:34.931Z,9.70
2023-04-21T01:12:08.626Z,9.70
2023-04-21T01:14:38.583Z,9.70
2023-04-21T01:17:08.768Z,9.70
2023-04-21T01:19:42.992Z,9.70
2023-04-21T01:22:12.549Z,9.60
2023-04-21T01:24:47.498Z,9.60
2023-04-21T01:27:20.026Z,9.60
2023-04-21T01:29:52.299Z,9.60
2023-04-21T01:32:24.501Z,9.40
2023-04-21T01:34:52.816Z,9.40
2023-04-21T01:37:24.781Z,9.40
2023-04-21T01:39:55.991Z,9.40
2023-04-21T01:42:27.951Z,9.30
2023-04-21T01:44:56.021Z,9.20
2023-04-21T01:47:25.375Z,9.10
2023-04-21T01:49:53.928Z,9.10
2023-04-21T01:52:21.850Z,9.10
2023-04-21T01:54:50.032Z,9.00
2023-04-21T01:57:18.185Z,9.00
2023-04-21T01:59:46.013Z,9.00
2023-04-21T02:02:13.753Z,9.00
2023-04-21T02:04:41.819Z,9.00
2023-04-21T02:07:09.447Z,9.00
2023-04-21T02:09:37.155Z,9.00
2023-04-21T02:12:05.015Z,8.90
2023-04-21T02:14:33.045Z,8.90
2023-04-21T02:17:00.726Z,8.90
2023-04-21T02:19:28.484Z,8.90
2023-04-21T02:21:56.177Z,8.80
2023-04-21T02:24:23.935Z,8.80
2023-04-21T02:26:51.432Z,8.80
2023-04-21T02:29:19.249Z,8.70
2023-04-21T02:31:58.816Z,8.70
2023-04-21T02:34:28.718Z,8.70
2023-04-21T02:36:56.352Z,8.70
2023-04-21T02:39:23.984Z,8.80
2023-04-21T02:41:51.629Z,8.90
2023-04-21T02:44:19.262Z,8.80
2023-04-21T02:46:47.075Z,8.90
2023-04-21T02:49:14.646Z,8.80
2023-04-21T02:51:42.242Z,8.80
2023-04-21T02:54:09.929Z,8.80
2023-04-21T02:56:37.568Z,8.70
2023-04-21T02:59:05.561Z,8.70
2023-04-21T03:01:33.065Z,8.60
2023-04-21T03:04:00.724Z,8.60
2023-04-21T03:06:28.557Z,8.60
2023-04-21T03:08:56.992Z,8.60
2023-04-21T03:11:24.469Z,8.60
2023-04-21T03:13:52.051Z,8.60
2023-04-21T03:16:20.115Z,8.70
2023-04-21T03:18:47.631Z,8.80
2023-04-21T03:21:15.216Z,8.80
2023-04-21T03:23:42.800Z,8.90
2023-04-21T03:26:10.475Z,8.80
2023-04-21T03:28:38.247Z,8.70
2023-04-21T03:31:05.997Z,8.70
2023-04-21T03:33:33.488Z,8.80
2023-04-21T03:36:02.150Z,8.80
2023-04-21T03:38:30.270Z,8.80
2023-04-21T03:40:57.768Z,8.70
2023-04-21T03:43:25.317Z,8.70
2023-04-21T03:45:52.942Z,8.60
2023-04-21T03:48:20.712Z,8.60
2023-04-21T03:50:48.491Z,8.50
2023-04-21T03:53:15.957Z,8.60
2023-04-21T03:55:43.810Z,8.60
2023-04-21T03:58:11.308Z,8.50
2023-04-21T04:00:38.810Z,8.60
2023-04-21T04:03:07.818Z,8.60
2023-04-21T04:05:39.019Z,8.50
2023-04-21T04:08:06.835Z,8.60
2023-04-21T04:10:34.376Z,8.50
2023-04-21T04:13:01.844Z,8.50
2023-04-21T04:15:29.472Z,8.40
2023-04-21T04:17:57.124Z,8.30
2023-04-21T04:20:25.023Z,8.00
2023-04-21T04:22:52.636Z,7.80
2023-04-21T04:25:20.601Z,7.50
2023-04-21T04:27:50.393Z,7.30
2023-04-21T04:30:18.208Z,7.20
2023-04-21T04:32:45.878Z,7.10
2023-04-21T04:35:13.855Z,7.00
2023-04-21T04:37:41.536Z,6.90
2023-04-21T04:40:12.395Z,7.00
2023-04-21T04:42:40.392Z,7.00
2023-04-21T04:45:09.545Z,7.00
2023-04-21T04:47:37.869Z,7.00
2023-04-21T04:50:07.411Z,7.10
2023-04-21T04:52:35.043Z,7.20
2023-04-21T04:55:03.091Z,7.20
2023-04-21T04:57:31.551Z,7.30
2023-04-21T04:59:59.065Z,7.30
2023-04-21T05:02:26.928Z,7.30
2023-04-21T05:04:54.576Z,7.30
2023-04-21T05:07:22.201Z,7.30
2023-04-21T05:09:49.707Z,7.30
2023-04-21T05:12:17.284Z,7.40
2023-04-21T05:14:44.792Z,7.50
2023-04-21T05:17:12.403Z,7.60
2023-04-21T05:19:40.062Z,7.70
2023-04-21T05:22:07.649Z,7.80
2023-04-21T05:24:35.211Z,7.90
2023-04-21T05:27:05.982Z,8.00
2023-04-21T05:29:34.579Z,8.20
2023-04-21T05:32:02.358Z,8.60
2023-04-21T05:34:29.984Z,8.80
2023-04-21T05:36:57.874Z,9.10
2023-04-21T05:39:25.998Z,9.20
2023-04-21T05:41:53.436Z,9.30
2023-04-21T05:44:21.266Z,9.50
2023-04-21T05:46:48.929Z,9.60
2023-04-21T05:49:16.445Z,9.70
2023-04-21T05:51:44.000Z,9.70
2023-04-21T05:54:11.443Z,9.80
2023-04-21T05:56:39.094Z,9.90
2023-04-21T05:59:07.201Z,9.90
2023-04-21T06:01:34.795Z,9.90
2023-04-21T06:04:02.491Z,10.00
2023-04-21T06:06:30.719Z,10.00
2023-04-21T06:08:58.239Z,10.10
2023-04-21T06:11:26.164Z,10.10
2023-04-21T06:13:58.435Z,10.40
2023-04-21T06:16:27.184Z,10.50
2023-04-21T06:18:54.852Z,10.70
2023-04-21T06:21:22.372Z,10.60
2023-04-21T06:23:49.883Z,10.70
2023-04-21T06:26:17.393Z,10.80
2023-04-21T06:28:44.823Z,10.80
2023-04-21T06:31:15.675Z,10.90
2023-04-21T06:33:43.427Z,11.10
2023-04-21T06:36:10.960Z,11.10
2023-04-21T06:38:40.108Z,11.20
2023-04-21T06:41:07.875Z,11.20
2023-04-21T06:43:35.560Z,11.40
2023-04-21T06:46:03.458Z,11.60
2023-04-21T06:48:31.216Z,11.70
2023-04-21T06:50:59.093Z,11.80
2023-04-21T06:53:26.680Z,11.90
2023-04-21T06:55:54.259Z,11.90
2023-04-21T06:58:21.757Z,11.90
2023-04-21T07:00:49.311Z,12.00
2023-04-21T07:03:16.851Z,12.10
2023-04-21T07:05:44.401Z,12.20
2023-04-21T07:08:11.961Z,12.20
2023-04-21T07:10:39.449Z,12.30
2023-04-21T07:13:09.477Z,12.40
2023-04-21T07:15:37.555Z,12.50
2023-04-21T07:18:05.186Z,12.70
2023-04-21T07:20:32.844Z,12.80
2023-04-21T07:23:00.344Z,12.90
2023-04-21T07:25:27.928Z,13.10
2023-04-21T07:27:55.455Z,13.10
2023-04-21T07:30:23.143Z,13.20
2023-04-21T07:32:50.800Z,13.30
2023-04-21T07:35:18.407Z,13.40
2023-04-21T07:37:46.178Z,13.60
2023-04-21T07:40:14.433Z,13.70
2023-04-21T07:42:41.921Z,13.80
2023-04-21T07:45:09.990Z,13.80
2023-04-21T07:47:37.614Z,14.00
2023-04-21T07:50:06.181Z,14.10
2023-04-21T07:52:35.255Z,14.20
2023-04-21T07:55:02.741Z,14.40
2023-04-21T07:57:32.211Z,14.50
2023-04-21T07:59:59.677Z,14.40
2023-04-21T08:02:27.263Z,14.50
2023-04-21T08:04:54.834Z,14.50
2023-04-21T08:07:22.473Z,14.70
2023-04-21T08:09:49.958Z,14.80
2023-04-21T08:12:17.670Z,15.00
2023-04-21T08:14:45.185Z,15.10
2023-04-21T08:17:12.799Z,15.30
2023-04-21T08:19:40.610Z,15.20
2023-04-21T08:22:08.118Z,15.30
2023-04-21T08:24:35.786Z,15.50
2023-04-21T08:27:03.926Z,15.60
2023-04-21T08:29:31.502Z,15.70
2023-04-21T08:31:59.118Z,15.70
2023-04-21T08:34:27.889Z,15.50
2023-04-21T08:36:55.797Z,15.30
2023-04-21T08:39:23.298Z,15.20
2023-04-21T08:41:52.019Z,15.40
2023-04-21T08:44:21.365Z,15.40
2023-04-21T08:46:52.180Z,15.40
2023-04-21T08:49:21.742Z,15.30
2023-04-21T08:51:49.392Z,15.60
2023-04-21T08:54:16.958Z,15.90
2023-04-21T08:56:44.458Z,15.90
2023-04-21T08:59:11.982Z,16.20
2023-04-21T09:02:18.089Z,16.10
2023-04-21T09:04:52.178Z,16.10
2023-04-21T09:07:41.616Z,16.10
2023-04-21T09:10:09.436Z,16.20
2023-04-21T09:12:41.025Z,16.40
2023-04-21T09:15:12.779Z,16.70
2023-04-21T09:17:40.279Z,17.10
2023-04-21T09:20:19.566Z,17.40
2023-04-21T09:22:51.405Z,17.70
2023-04-21T09:25:23.183Z,17.70
2023-04-21T09:27:51.279Z,17.60
2023-04-21T09:30:20.546Z,17.60
2023-04-21T09:32:48.207Z,17.90
2023-04-21T09:35:15.846Z,18.20
2023-04-21T09:37:46.416Z,18.20
2023-04-21T09:40:18.988Z,18.00
2023-04-21T09:42:47.169Z,18.20
2023-04-21T09:47:53.764Z,18.50
2023-04-21T09:50:54.273Z,18.60
2023-04-21T09:53:17.306Z,18.40
2023-04-21T09:55:50.612Z,18.50
2023-04-21T09:58:24.353Z,18.60
2023-04-21T10:00:54.112Z,18.60
2023-04-21T10:03:27.303Z,18.60
2023-04-21T10:05:55.857Z,18.70
2023-04-21T10:08:23.597Z,19.10
2023-04-21T10:10:53.088Z,19.40
2023-04-21T10:13:20.831Z,19.60
2023-04-21T10:15:48.470Z,19.60
2023-04-21T10:18:23.586Z,19.70
2023-04-21T10:21:07.383Z,19.70
2023-04-21T10:23:38.107Z,19.70
2023-04-21T10:26:12.415Z,19.80
2023-04-21T10:29:08.234Z,20.00
2023-04-21T10:31:54.433Z,20.30
2023-04-21T10:34:26.549Z,20.40
2023-04-21T10:36:56.995Z,20.10
2023-04-21T10:39:33.726Z,20.30
2023-04-21T10:42:13.420Z,20.60
2023-04-21T10:44:44.838Z,20.60
2023-04-21T10:47:12.516Z,20.70
2023-04-21T10:49:41.196Z,20.70
2023-04-21T10:52:11.149Z,20.90
2023-04-21T10:54:47.473Z,20.90
2023-04-21T10:57:20.316Z,20.90
2023-04-21T10:59:49.817Z,20.80
2023-04-21T11:02:19.448Z,20.80
2023-04-21T11:04:53.010Z,21.10
2023-04-21T11:07:23.901Z,21.60
2023-04-21T11:10:07.101Z,21.90
2023-04-21T11:12:40.463Z,22.20
2023-04-21T11:15:12.137Z,22.30
2023-04-21T11:17:40.194Z,21.90
2023-04-21T11:20:08.991Z,21.70
2023-04-21T11:22:38.898Z,21.80
2023-04-21T11:25:17.574Z,22.20
2023-04-21T11:27:57.642Z,22.80
2023-04-21T11:30:35.285Z,23.20
2023-04-21T11:33:03.276Z,21.90
2023-04-21T11:35:32.341Z,22.00
2023-04-21T11:38:05.746Z,22.70
2023-04-21T11:40:48.494Z,23.30
2023-04-21T11:43:16.092Z,23.80
2023-04-21T11:45:43.753Z,24.10
2023-04-21T11:48:19.716Z,23.50
2023-04-21T11:50:51.517Z,23.90
2023-04-21T11:53:20.012Z,24.70
2023-04-21T11:55:47.600Z,24.70
2023-04-21T11:58:18.170Z,25.20
2023-04-21T12:00:46.623Z,24.80
2023-04-21T12:03:14.884Z,24.20
2023-04-21T12:05:42.752Z,24.20
2023-04-21T12:08:16.780Z,24.70
2023-04-21T12:10:49.194Z,25.40
2023-04-21T12:13:28.980Z,25.70
2023-04-21T12:15:56.872Z,25.80
2023-04-21T12:18:28.547Z,26.60
2023-04-21T12:20:56.116Z,26.40
2023-04-21T12:23:23.633Z,26.50
2023-04-21T12:25:51.717Z,26.80
2023-04-21T12:28:19.339Z,27.30
2023-04-21T12:30:46.919Z,27.60
2023-04-21T12:33:14.468Z,28.00
2023-04-21T12:35:42.222Z,28.30
2023-04-21T12:38:10.098Z,27.30
2023-04-21T12:40:37.595Z,27.00
2023-04-21T12:43:05.058Z,25.90
2023-04-21T12:45:33.133Z,25.70
2023-04-21T12:48:01.312Z,25.80
2023-04-21T12:50:28.779Z,26.20
2023-04-21T12:52:56.309Z,27.20
2023-04-21T12:55:24.357Z,28.90
2023-04-21T12:57:52.969Z,29.00
2023-04-21T13:00:22.200Z,27.80
2023-04-21T13:02:49.793Z,27.10
2023-04-21T13:05:17.497Z,27.20
2023-04-21T13:07:45.042Z,27.80
2023-04-21T13:10:12.881Z,27.20
2023-04-21T13:12:41.567Z,27.50
2023-04-21T13:15:09.930Z,27.80
2023-04-21T13:17:37.444Z,26.90
2023-04-21T13:20:07.413Z,26.90
2023-04-21T13:22:35.875Z,26.80
2023-04-21T13:25:04.741Z,25.80
2023-04-21T13:27:33.533Z,23.80
2023-04-21T13:30:01.331Z,23.10
2023-04-21T13:32:28.882Z,24.00
2023-04-21T13:34:56.481Z,25.10
2023-04-21T13:37:23.992Z,24.20
2023-04-21T13:39:52.071Z,23.20
2023-04-21T13:42:19.612Z,22.70
2023-04-21T13:44:47.320Z,23.30
2023-04-21T13:47:15.814Z,25.10
2023-04-21T13:49:43.380Z,25.80
2023-04-21T13:52:10.844Z,26.90
2023-04-21T13:54:38.712Z,27.60
2023-04-21T13:57:06.335Z,27.20
2023-04-21T13:59:34.407Z,26.70
2023-04-21T14:02:02.610Z,25.90
2023-04-21T14:04:31.158Z,24.60
2023-04-21T14:06:59.022Z,24.10
2023-04-21T14:09:26.792Z,24.20
2023-04-21T14:11:54.326Z,23.70
2023-04-21T14:14:37.378Z,23.30
2023-04-21T14:17:05.296Z,23.50
2023-04-21T14:19:32.953Z,24.60
2023-04-21T14:22:00.666Z,25.00
2023-04-21T14:24:30.288Z,24.20
2023-04-21T14:26:58.290Z,23.30
2023-04-21T14:29:26.212Z,22.60
2023-04-21T14:31:57.957Z,21.90
2023-04-21T14:34:26.488Z,21.70
2023-04-21T14:36:54.700Z,21.60
2023-04-21T14:39:22.368Z,21.30
2023-04-21T14:41:49.922Z,21.50
2023-04-21T14:44:19.094Z,21.40
2023-04-21T14:46:53.737Z,21.30
2023-04-21T14:49:33.814Z,21.30
2023-04-21T14:52:01.828Z,20.90
2023-04-21T14:54:29.346Z,20.50
2023-04-21T14:57:10.438Z,20.80
2023-04-21T14:59:46.963Z,21.50
2023-04-21T15:02:14.883Z,22.90
2023-04-21T15:04:42.576Z,23.40
2023-04-21T15:07:10.211Z,24.40
2023-04-21T15:09:39.219Z,25.40
2023-04-21T15:12:07.659Z,26.10
2023-04-21T15:14:35.226Z,26.60
2023-04-21T15:17:02.938Z,27.30
2023-04-21T15:19:30.758Z,27.60
2023-04-21T15:21:58.798Z,26.20
2023-04-21T15:24:26.245Z,24.10
2023-04-21T15:26:53.692Z,22.60
2023-04-21T15:29:21.232Z,21.60
2023-04-21T15:31:48.880Z,21.00
2023-04-21T15:34:16.349Z,20.40
2023-04-21T15:36:44.376Z,20.80
2023-04-21T15:39:14.363Z,22.60
2023-04-21T15:41:42.581Z,24.50
2023-04-21T15:44:11.250Z,25.60
2023-04-21T15:46:38.975Z,25.40
2023-04-21T15:49:06.533Z,26.00
2023-04-21T15:51:35.754Z,27.20
2023-04-21T15:54:04.610Z,28.10
2023-04-21T15:56:32.162Z,26.40
2023-04-21T15:58:59.681Z,26.90
2023-04-21T16:01:27.312Z,27.00
2023-04-21T16:03:55.096Z,27.20
2023-04-21T16:06:24.290Z,27.70
2023-04-21T16:08:51.893Z,27.50
2023-04-21T16:11:19.473Z,27.20
2023-04-21T16:13:47.013Z,27.00
2023-04-21T16:16:14.692Z,27.10
2023-04-21T16:18:42.297Z,27.20
2023-04-21T16:21:11.020Z,26.50
2023-04-21T16:23:38.792Z,25.80
2023-04-21T16:26:08.374Z,25.20
2023-04-21T16:28:36.239Z,24.70
2023-04-21T16:31:04.294Z,23.10
2023-04-21T16:33:32.123Z,22.10
2023-04-21T16:35:59.628Z,21.30
2023-04-21T16:38:27.142Z,20.60
2023-04-21T16:40:54.849Z,20.30
2023-04-21T16:43:22.460Z,19.80
2023-04-21T16:45:50.014Z,19.50
2023-04-21T16:48:17.601Z,19.30
2023-04-21T16:50:45.716Z,19.10
2023-04-21T16:53:13.291Z,18.90
2023-04-21T16:55:40.783Z,18.80
2023-04-21T16:58:08.734Z,19.00
2023-04-21T17:00:37.633Z,19.10
2023-04-21T17:03:05.309Z,19.30
2023-04-21T17:05:32.867Z,19.70
2023-04-21T17:08:00.421Z,20.00
2023-04-21T17:10:27.966Z,20.20
2023-04-21T17:12:55.486Z,20.30
2023-04-21T17:15:23.012Z,20.60
2023-04-21T17:17:51.459Z,20.50
2023-04-21T17:20:19.021Z,20.10
2023-04-21T17:22:46.536Z,19.50
2023-04-21T17:25:14.061Z,19.00
2023-04-21T17:27:42.217Z,18.50
2023-04-21T17:30:11.481Z,17.70
2023-04-21T17:32:40.977Z,17.20
2023-04-21T17:35:09.119Z,16.80
2023-04-21T17:37:36.634Z,16.60
2023-04-21T17:40:05.228Z,16.30
2023-04-21T17:42:32.715Z,16.00
2023-04-21T17:45:00.202Z,15.50
2023-04-21T17:47:27.696Z,15.00
2023-04-21T17:49:55.230Z,14.60
2023-04-21T17:52:22.736Z,14.30
2023-04-21T17:54:50.298Z,14.00
2023-04-21T17:57:18.152Z,13.80
2023-04-21T17:59:45.802Z,13.50
2023-04-21T18:02:13.599Z,13.40
2023-04-21T18:04:41.740Z,13.20
2023-04-21T18:07:09.584Z,13.10
2023-04-21T18:09:37.416Z,13.00
2023-04-21T18:12:05.186Z,12.90
2023-04-21T18:14:32.968Z,12.80
2023-04-21T18:17:00.877Z,12.60
2023-04-21T18:19:28.345Z,12.50
2023-04-21T18:21:55.921Z,12.40
2023-04-21T18:24:23.477Z,12.40
2023-04-21T18:26:51.525Z,12.30
2023-04-21T18:29:19.814Z,12.30
2023-04-21T18:31:47.549Z,12.20
2023-04-21T18:34:15.318Z,12.20
2023-04-21T18:36:43.223Z,12.20
2023-04-21T18:39:11.722Z,12.10
2023-04-21T18:41:39.326Z,12.10
2023-04-21T18:44:07.008Z,12.10
2023-04-21T18:46:34.554Z,12.00
2023-04-21T18:49:02.084Z,12.00
2023-04-21T18:51:31.508Z,11.90
2023-04-21T18:53:59.017Z,11.90
2023-04-21T18:56:27.306Z,11.70
2023-04-21T18:58:54.887Z,11.70
2023-04-21T19:01:22.468Z,11.60
2023-04-21T19:03:50.275Z,11.60
2023-04-21T19:06:17.960Z,11.60
2023-04-21T19:08:45.505Z,11.60
2023-04-21T19:11:18.032Z,11.60
2023-04-21T19:13:45.588Z,11.60
2023-04-21T19:16:13.113Z,11.50
2023-04-21T19:18:41.682Z,11.60
2023-04-21T19:21:13.873Z,11.50
2023-04-21T19:23:41.996Z,11.60
2023-04-21T19:26:11.989Z,11.50
2023-04-21T19:28:43.555Z,11.60
2023-04-21T19:31:11.183Z,11.60
2023-04-21T19:33:38.685Z,11.60
2023-04-21T19:36:06.767Z,11.60
2023-04-21T19:38:34.215Z,11.50
2023-04-21T19:41:01.657Z,11.50
2023-04-21T19:43:29.138Z,11.40
2023-04-21T19:45:58.682Z,11.30
2023-04-21T19:48:26.871Z,11.20
2023-04-21T19:50:54.481Z,11.20
2023-04-21T19:53:21.938Z,11.30
2023-04-21T19:55:52.525Z,11.40
2023-04-21T19:58:36.315Z,11.50
2023-04-21T20:01:06.741Z,11.60
2023-04-21T20:03:34.691Z,11.80
2023-04-21T20:06:04.941Z,11.90
2023-04-21T20:08:32.691Z,11.90
2023-04-21T20:11:00.182Z,11.90
2023-04-21T20:13:27.711Z,11.90
2023-04-21T20:15:55.939Z,11.90
2023-04-21T20:18:23.567Z,11.80
2023-04-21T20:20:51.069Z,11.70
2023-04-21T20:23:18.828Z,11.70
2023-04-21T20:25:46.708Z,11.60
2023-04-21T20:28:14.260Z,11.60
2023-04-21T20:30:41.788Z,11.60
2023-04-21T20:33:09.653Z,11.60
2023-04-21T20:35:39.821Z,11.60
2023-04-21T20:38:10.722Z,11.50
2023-04-21T20:40:39.491Z,11.40
2023-04-21T20:43:07.753Z,11.20
2023-04-21T20:45:35.278Z,11.20
2023-04-21T20:48:02.760Z,11.10
2023-04-21T20:50:30.212Z,11.20
2023-04-21T20:52:58.275Z,11.20
2023-04-21T20:55:28.265Z,11.20
2023-04-21T20:57:55.767Z,11.20
2023-04-21T21:00:23.503Z,11.20
2023-04-21T21:02:53.783Z,11.20
2023-04-21T21:05:21.321Z,11.20
2023-04-21T21:07:48.944Z,11.10
2023-04-21T21:10:18.449Z,11.10
2023-04-21T21:12:46.150Z,11.10
2023-04-21T21:15:13.753Z,11.00
2023-04-21T21:17:42.305Z,11.10
2023-04-21T21:20:10.588Z,11.10
2023-04-21T21:22:38.219Z,11.10
2023-04-21T21:25:06.271Z,11.00
2023-04-21T21:27:33.800Z,11.00
2023-04-21T21:30:01.521Z,10.90
2023-04-21T21:32:29.311Z,10.90
2023-04-21T21:34:56.812Z,11.00
2023-04-21T21:37:25.913Z,10.90
2023-04-21T21:39:55.425Z,10.90
2023-04-21T21:42:23.164Z,10.90
2023-04-21T21:44:50.819Z,10.80
2023-04-21T21:47:18.454Z,10.80
2023-04-21T21:49:46.073Z,10.70
2023-04-21T21:52:15.188Z,10.70
2023-04-21T21:54:42.985Z,10.60
2023-04-21T21:57:10.509Z,10.60
2023-04-21T21:59:38.302Z,10.50
2023-04-21T22:02:06.715Z,10.40
2023-04-21T22:04:34.322Z,10.20
2023-04-21T22:07:02.050Z,10.10
2023-04-21T22:09:29.560Z,10.00
2023-04-21T22:11:57.133Z,10.00
2023-04-21T22:14:24.752Z,9.90
2023-04-21T22:16:53.343Z,9.80
2023-04-21T22:19:21.184Z,9.80
2023-04-21T22:21:49.239Z,9.70
2023-04-21T22:24:16.793Z,9.70
2023-04-21T22:26:45.011Z,9.60
2023-04-21T22:29:12.516Z,9.60
2023-04-21T22:31:40.144Z,9.60
2023-04-21T22:34:07.700Z,9.60
2023-04-21T22:36:35.327Z,9.60
2023-04-21T22:39:02.831Z,9.50
2023-04-21T22:41:30.398Z,9.60
2023-04-21T22:43:57.879Z,9.50
2023-04-21T22:46:25.644Z,9.40
2023-04-21T22:48:54.351Z,9.40
2023-04-21T22:51:23.230Z,9.30
2023-04-21T22:53:50.730Z,9.20
2023-04-21T22:56:18.283Z,9.20
2023-04-21T22:58:45.752Z,9.10
2023-04-21T23:01:13.575Z,9.00
2023-04-21T23:03:41.439Z,8.90
2023-04-21T23:06:09.037Z,8.80
2023-04-21T23:08:36.736Z,8.70
2023-04-21T23:11:04.540Z,8.70
2023-04-21T23:13:35.065Z,8.80
2023-04-21T23:16:02.605Z,8.70
2023-04-21T23:18:30.138Z,8.70
2023-04-21T23:20:58.759Z,8.60
2023-04-21T23:23:26.296Z,8.60
2023-04-21T23:25:53.877Z,8.50
2023-04-21T23:28:21.795Z,8.50
2023-04-21T23:30:49.334Z,8.50
2023-04-21T23:33:17.016Z,8.40
2023-04-21T23:35:44.973Z,8.40
2023-04-21T23:38:12.397Z,8.40
2023-04-21T23:40:39.929Z,8.40
2023-04-21T23:43:07.831Z,8.50
2023-04-21T23:45:35.447Z,8.50
2023-04-21T23:48:03.053Z,8.40
2023-04-21T23:50:30.651Z,8.40
2023-04-21T23:52:58.214Z,8.30
2023-04-21T23:55:26.625Z,8.20
2023-04-21T23:57:54.205Z,8.10
